KFMH/FMH METAR and TAF weather

Enter ICAO airport designator
Station Type Date Time Source
KFMH METAR 2021/05/11 15:55 UTC NOAA

KFMH 111555Z 24017KT 10SM CLR 16/02 A2995


Station Type Date Time Source
KFMH Decoded METAR 2021/05/11 15:55 UTC NOAA

Otis Air National Guard Base, MA, United States (KFMH) 41-39N 070-31W
May 11, 2021 - 11:55 AM EDT / 2021.05.11 1555 UTC
Wind: from the WSW (240 degrees) at 20 MPH (17 KT):0
Visibility: 10 mile(s):0
Sky conditions: clear
Temperature: 60 F (16 C)
Dew Point: 35 F (2 C)
Relative Humidity: 38%
Pressure (altimeter): 29.95 in. Hg (1014 hPa)
ob: KFMH 111555Z 24017KT 10SM CLR 16/02 A2995
cycle: 16

Station Type Date Time Source
KFMH TAF 2021/05/11 12:22 UTC NOAA

TAF KFMH 111120Z 1112/1212 29008KT P6SM BKN250
FM111600 26012G23KT P6SM FEW250
FM112200 25012G25KT P6SM SCT070
FM120000 25010G17KT P6SM SCT090
FM120500 28007KT P6SM FEW120

Example: see airport list